Time;durP1;ratioP1;P1;durP2;ratioP2;P2;SDS_P1;SDS_P2;PMS_P1;PMS_P2;Temp;Humidity;BMP_temperature;BMP_pressure;BME280_temperature;BME280_humidity;BME280_pressure;Samples;Min_cycle;Max_cycle;Signal;HPM_P1;HPM_P2
2023/11/15 00:01:10;;;;;;;5.90;4.23;;;21.30;58.20;;;;;;5045065;28;20183;-69
2023/11/15 00:03:36;;;;;;;4.60;3.80;;;21.30;58.20;;;;;;5051006;28;20681;-70
2023/11/15 00:06:02;;;;;;;4.80;4.20;;;21.30;58.20;;;;;;5051916;28;20191;-71
2023/11/15 00:08:27;;;;;;;4.50;3.17;;;21.30;58.20;;;;;;5051035;28;20684;-69
2023/11/15 00:10:53;;;;;;;4.90;3.10;;;21.30;58.20;;;;;;5051143;28;20585;-70
2023/11/15 00:13:18;;;;;;;4.90;3.40;;;21.30;58.20;;;;;;5051194;28;20172;-70
2023/11/15 00:15:44;;;;;;;4.13;3.27;;;21.30;58.20;;;;;;5050905;28;20190;-70
2023/11/15 00:18:10;;;;;;;5.63;3.83;;;21.30;58.20;;;;;;5052405;28;20687;-69
2023/11/15 00:20:35;;;;;;;5.60;3.53;;;21.30;58.20;;;;;;5052504;28;20203;-70
2023/11/15 00:23:01;;;;;;;4.57;3.73;;;21.30;58.20;;;;;;5052678;28;20268;-69
2023/11/15 00:25:28;;;;;;;4.30;3.37;;;21.30;58.20;;;;;;5052821;28;20601;-69
2023/11/15 00:27:55;;;;;;;4.73;3.63;;;21.30;58.20;;;;;;5052610;28;20409;-69
2023/11/15 00:30:21;;;;;;;4.97;3.70;;;21.30;58.20;;;;;;5052517;28;20417;-70
2023/11/15 00:32:46;;;;;;;4.43;3.60;;;21.30;58.20;;;;;;5052940;28;20788;-69
2023/11/15 00:35:12;;;;;;;3.90;3.47;;;21.30;58.20;;;;;;5052601;28;20178;-69
2023/11/15 00:37:38;;;;;;;4.87;4.20;;;21.30;58.20;;;;;;5052209;28;20731;-69
2023/11/15 00:40:05;;;;;;;5.87;3.00;;;21.30;58.20;;;;;;5052351;28;20289;-70
2023/11/15 00:42:31;;;;;;;4.17;3.40;;;21.30;58.20;;;;;;5052565;28;20437;-69
2023/11/15 00:44:56;;;;;;;4.57;3.27;;;21.30;58.20;;;;;;5052474;28;20837;-70
2023/11/15 00:47:22;;;;;;;5.57;3.60;;;21.40;58.30;;;;;;5051979;28;20569;-69
2023/11/15 00:49:48;;;;;;;6.67;4.70;;;21.30;58.20;;;;;;5052360;28;20211;-70
2023/11/15 00:52:13;;;;;;;6.03;3.30;;;21.30;58.20;;;;;;5052278;28;20662;-70
2023/11/15 00:54:40;;;;;;;4.80;4.03;;;21.40;58.30;;;;;;5052275;28;20270;-69
2023/11/15 00:57:06;;;;;;;4.00;3.33;;;21.30;58.20;;;;;;5052034;28;20643;-70
2023/11/15 00:59:37;;;;;;;4.90;3.70;;;21.30;58.20;;;;;;5051953;28;20461;-69
2023/11/15 01:02:05;;;;;;;4.10;3.33;;;21.30;58.20;;;;;;5052189;28;21237;-70
2023/11/15 01:04:31;;;;;;;5.40;4.00;;;21.30;58.20;;;;;;5051961;28;20410;-69
2023/11/15 01:06:57;;;;;;;5.00;3.40;;;21.30;58.20;;;;;;5051695;28;20432;-69
2023/11/15 01:09:23;;;;;;;5.63;3.93;;;21.30;58.20;;;;;;5051755;28;20425;-69
2023/11/15 01:11:52;;;;;;;3.23;2.70;;;21.30;58.50;;;;;;5051902;28;20185;-69
2023/11/15 01:14:19;;;;;;;3.83;3.13;;;21.30;58.20;;;;;;5051508;28;20928;-69
2023/11/15 01:16:44;;;;;;;4.80;3.30;;;21.30;58.20;;;;;;5051500;28;20430;-69
2023/11/15 01:19:10;;;;;;;4.00;3.20;;;21.30;58.20;;;;;;5050546;28;20463;-69
2023/11/15 01:21:36;;;;;;;4.10;3.00;;;21.30;58.20;;;;;;5051623;28;20313;-70
2023/11/15 01:24:01;;;;;;;4.30;3.53;;;21.30;58.20;;;;;;5051549;28;20217;-70
2023/11/15 01:26:27;;;;;;;3.53;2.93;;;21.30;58.20;;;;;;5051423;28;20187;-69
2023/11/15 01:28:54;;;;;;;3.80;2.80;;;21.30;58.20;;;;;;5051190;28;20753;-70
2023/11/15 01:31:20;;;;;;;4.50;3.50;;;21.30;58.20;;;;;;5051563;28;20420;-70
2023/11/15 01:33:46;;;;;;;4.50;3.07;;;21.30;58.20;;;;;;5051490;28;20409;-69
2023/11/15 01:36:11;;;;;;;3.50;3.00;;;21.30;58.20;;;;;;5051146;28;20432;-69
2023/11/15 01:38:37;;;;;;;4.67;3.40;;;21.30;58.20;;;;;;5051161;28;20176;-70
2023/11/15 01:41:05;;;;;;;3.70;2.53;;;21.30;58.20;;;;;;5051297;28;20220;-69
2023/11/15 01:43:31;;;;;;;4.10;3.17;;;21.30;58.20;;;;;;5051664;28;20182;-70
2023/11/15 01:45:57;;;;;;;3.23;2.70;;;21.30;58.20;;;;;;5050945;28;20580;-70
2023/11/15 01:48:23;;;;;;;3.40;2.77;;;21.30;58.20;;;;;;5051512;28;20231;-69
2023/11/15 01:50:49;;;;;;;4.20;3.40;;;21.30;58.20;;;;;;5051106;28;20646;-69
2023/11/15 01:53:15;;;;;;;3.57;2.83;;;21.30;58.20;;;;;;5051088;28;20401;-70
2023/11/15 01:55:42;;;;;;;3.50;2.90;;;21.30;58.20;;;;;;5051233;28;20187;-68
2023/11/15 01:58:08;;;;;;;4.20;2.80;;;21.30;58.20;;;;;;5051169;28;20443;-71
2023/11/15 02:00:34;;;;;;;3.50;3.20;;;21.30;58.20;;;;;;5051050;28;20975;-69
2023/11/15 02:03:01;;;;;;;2.83;2.53;;;21.30;58.20;;;;;;5051070;28;20170;-70
2023/11/15 02:05:27;;;;;;;4.27;3.33;;;21.30;58.20;;;;;;5050776;28;20292;-70
2023/11/15 02:07:53;;;;;;;6.33;3.20;;;21.30;58.20;;;;;;5051105;28;20496;-70
2023/11/15 02:10:19;;;;;;;4.63;3.43;;;21.30;58.20;;;;;;5050758;28;20684;-69
2023/11/15 02:12:46;;;;;;;3.50;2.87;;;21.30;58.20;;;;;;5051511;28;20413;-70
2023/11/15 02:15:15;;;;;;;4.10;3.03;;;21.30;58.20;;;;;;5051233;28;20425;-69
2023/11/15 02:17:48;;;;;;;3.43;2.70;;;21.30;58.20;;;;;;5050892;28;20437;-68
2023/11/15 02:20:16;;;;;;;2.90;2.50;;;21.30;58.20;;;;;;5050560;28;20530;-69
2023/11/15 02:22:51;;;;;;;6.03;3.20;;;21.30;58.20;;;;;;5050696;28;20768;-69
2023/11/15 02:25:18;;;;;;;3.10;2.63;;;21.30;58.20;;;;;;5050556;28;20464;-69
2023/11/15 02:27:44;;;;;;;5.17;3.00;;;21.30;58.20;;;;;;5050499;28;20556;-69
2023/11/15 02:30:10;;;;;;;3.53;2.50;;;21.30;58.20;;;;;;5050193;28;20496;-69
2023/11/15 02:32:40;;;;;;;3.40;3.10;;;21.30;58.20;;;;;;5050498;28;20410;-70
2023/11/15 02:35:09;;;;;;;3.60;2.90;;;21.30;58.20;;;;;;5050589;28;20781;-69
2023/11/15 02:37:35;;;;;;;3.40;2.47;;;21.30;58.20;;;;;;5050309;28;20421;-70
2023/11/15 02:40:04;;;;;;;4.40;3.07;;;21.30;58.20;;;;;;5050319;28;20459;-69
2023/11/15 02:42:32;;;;;;;2.73;2.40;;;21.30;58.20;;;;;;5050348;28;20420;-69
2023/11/15 02:44:58;;;;;;;3.27;2.90;;;21.30;58.20;;;;;;5050336;28;20421;-69
2023/11/15 02:47:25;;;;;;;3.40;2.63;;;21.30;58.20;;;;;;5050332;28;20421;-70
2023/11/15 02:49:52;;;;;;;3.67;2.90;;;21.30;58.20;;;;;;5050329;28;20167;-69
2023/11/15 02:52:18;;;;;;;4.00;2.57;;;21.30;58.20;;;;;;5048907;28;20975;-69
2023/11/15 02:54:44;;;;;;;3.23;2.70;;;21.30;58.20;;;;;;5050293;28;20488;-69
2023/11/15 02:57:11;;;;;;;3.30;2.30;;;21.30;58.20;;;;;;5050023;28;20582;-69
2023/11/15 02:59:37;;;;;;;3.57;2.57;;;21.30;58.20;;;;;;5050181;28;20210;-70
2023/11/15 03:02:03;;;;;;;2.70;2.30;;;21.30;58.20;;;;;;5050321;28;20923;-67
2023/11/15 03:04:29;;;;;;;4.60;3.10;;;21.30;58.20;;;;;;5050049;28;20668;-69
2023/11/15 03:06:54;;;;;;;3.47;2.60;;;21.30;58.20;;;;;;5050085;28;20437;-69
2023/11/15 03:09:20;;;;;;;3.67;2.90;;;21.30;58.20;;;;;;5050001;28;20174;-70
2023/11/15 03:11:46;;;;;;;3.77;3.00;;;21.30;58.20;;;;;;5050111;28;20175;-68
2023/11/15 03:14:12;;;;;;;3.60;2.70;;;21.30;58.20;;;;;;5050495;28;20183;-69
2023/11/15 03:16:37;;;;;;;4.30;2.97;;;21.30;58.20;;;;;;5050148;28;20777;-69
2023/11/15 03:19:04;;;;;;;3.83;2.93;;;21.30;58.20;;;;;;5049804;28;20230;-69
2023/11/15 03:21:29;;;;;;;3.60;2.80;;;21.30;58.20;;;;;;5048649;28;20642;-69
2023/11/15 03:23:55;;;;;;;3.90;2.70;;;21.30;58.20;;;;;;5050000;28;20416;-69
2023/11/15 03:26:21;;;;;;;4.33;2.97;;;21.30;58.20;;;;;;5049848;28;20670;-69
2023/11/15 03:28:47;;;;;;;3.93;2.37;;;21.30;58.20;;;;;;5050107;28;20183;-70
2023/11/15 03:31:12;;;;;;;2.90;2.40;;;21.30;58.20;;;;;;5049968;28;20840;-69
2023/11/15 03:33:47;;;;;;;3.10;2.80;;;21.30;58.20;;;;;;5049752;28;20175;-70
2023/11/15 03:36:13;;;;;;;2.90;2.37;;;21.30;58.20;;;;;;5049940;28;20186;-69
2023/11/15 03:38:38;;;;;;;4.47;3.00;;;21.30;58.20;;;;;;5049449;28;20960;-70
2023/11/15 03:41:04;;;;;;;3.20;2.83;;;21.30;58.20;;;;;;5049833;28;20436;-70
2023/11/15 03:43:30;;;;;;;3.40;2.60;;;21.30;58.70;;;;;;5052180;28;20250;-69
2023/11/15 03:45:56;;;;;;;3.40;2.70;;;21.30;58.20;;;;;;5053458;28;20946;-69
2023/11/15 03:48:22;;;;;;;3.30;3.00;;;21.30;58.20;;;;;;5053300;28;20183;-70
2023/11/15 03:50:47;;;;;;;3.50;2.60;;;21.30;58.20;;;;;;5053270;28;20664;-69
2023/11/15 03:53:13;;;;;;;3.40;2.80;;;21.30;58.20;;;;;;5053262;28;20417;-69
2023/11/15 03:55:39;;;;;;;3.40;2.20;;;21.30;58.20;;;;;;5053220;28;20247;-70
2023/11/15 03:58:04;;;;;;;2.50;2.30;;;21.30;58.20;;;;;;5053064;28;20555;-69
2023/11/15 04:00:30;;;;;;;2.97;2.43;;;21.30;58.20;;;;;;5053350;28;20827;-70
2023/11/15 04:02:56;;;;;;;3.43;2.40;;;21.30;58.20;;;;;;5053066;28;20171;-71
2023/11/15 04:05:22;;;;;;;4.20;2.63;;;21.30;58.20;;;;;;5051680;28;20765;-69
2023/11/15 04:07:47;;;;;;;3.20;2.73;;;21.30;58.20;;;;;;5052982;28;20171;-71
2023/11/15 04:10:13;;;;;;;2.93;2.20;;;21.30;58.20;;;;;;5053114;28;20175;-69
2023/11/15 04:12:39;;;;;;;2.70;2.17;;;21.30;58.20;;;;;;5052898;28;20175;-70
2023/11/15 04:15:05;;;;;;;2.80;2.27;;;21.30;58.20;;;;;;5052884;28;20258;-68
2023/11/15 04:17:31;;;;;;;3.27;2.90;;;21.30;58.20;;;;;;5052600;28;20206;-69
2023/11/15 04:19:56;;;;;;;2.80;2.20;;;21.30;58.20;;;;;;5052932;28;20456;-71
2023/11/15 04:22:22;;;;;;;3.13;2.83;;;21.30;58.20;;;;;;5053093;28;20171;-69
2023/11/15 04:24:48;;;;;;;3.30;2.53;;;21.30;58.20;;;;;;5052467;28;20175;-70
2023/11/15 04:27:14;;;;;;;3.23;2.40;;;21.30;58.20;;;;;;5052715;28;20289;-70
2023/11/15 04:29:40;;;;;;;3.13;2.40;;;21.30;58.20;;;;;;5052525;28;20217;-69
2023/11/15 04:32:06;;;;;;;3.33;2.67;;;21.30;58.20;;;;;;5052365;28;20183;-70
2023/11/15 04:34:32;;;;;;;3.63;2.27;;;21.30;58.20;;;;;;5052252;28;20467;-70
2023/11/15 04:36:58;;;;;;;3.93;2.73;;;21.30;58.20;;;;;;5052287;28;20438;-69
2023/11/15 04:39:24;;;;;;;2.87;2.23;;;21.30;58.20;;;;;;5052225;28;20249;-70
2023/11/15 04:41:50;;;;;;;2.97;2.40;;;21.30;58.20;;;;;;5052458;28;20164;-69
2023/11/15 04:44:16;;;;;;;3.10;2.60;;;21.30;58.20;;;;;;5052120;28;20441;-69
2023/11/15 04:46:42;;;;;;;4.80;2.10;;;21.30;58.20;;;;;;5052030;28;20460;-69
2023/11/15 04:49:08;;;;;;;3.03;2.03;;;21.30;58.70;;;;;;5051879;28;20278;-69
2023/11/15 04:51:34;;;;;;;3.00;2.33;;;21.30;58.20;;;;;;5051969;28;20455;-70
2023/11/15 04:54:00;;;;;;;3.20;2.40;;;21.30;58.20;;;;;;5051772;28;20171;-70
2023/11/15 04:56:25;;;;;;;2.77;2.17;;;21.30;58.20;;;;;;5052161;28;20441;-69
2023/11/15 04:58:54;;;;;;;2.67;2.20;;;21.30;58.20;;;;;;5051863;28;21003;-69
2023/11/15 05:01:20;;;;;;;3.23;2.93;;;21.30;58.10;;;;;;5051985;28;20167;-68
2023/11/15 05:03:46;;;;;;;2.13;1.90;;;21.30;58.20;;;;;;5051736;28;20673;-69
2023/11/15 05:06:12;;;;;;;4.10;2.70;;;21.30;58.20;;;;;;5051731;28;20225;-69
2023/11/15 05:08:37;;;;;;;2.13;1.83;;;21.30;58.10;;;;;;5051807;28;20466;-70
2023/11/15 05:11:03;;;;;;;3.00;2.43;;;21.30;58.10;;;;;;5051931;28;20670;-69
2023/11/15 05:13:29;;;;;;;2.57;2.00;;;21.20;58.10;;;;;;5050260;28;20183;-69
2023/11/15 05:15:56;;;;;;;3.17;2.50;;;21.30;58.10;;;;;;5051205;28;20221;-69
2023/11/15 05:18:21;;;;;;;2.67;2.00;;;21.30;58.20;;;;;;5039409;28;20576;-69
2023/11/15 05:20:47;;;;;;;3.80;2.60;;;21.20;58.10;;;;;;5051156;28;20457;-70
2023/11/15 05:23:13;;;;;;;5.43;1.90;;;21.20;58.10;;;;;;5050672;28;20388;-69
2023/11/15 05:25:40;;;;;;;3.40;2.20;;;21.20;58.10;;;;;;5049337;28;20220;-70
2023/11/15 05:28:05;;;;;;;2.33;1.97;;;21.20;58.10;;;;;;5049086;28;20167;-71
2023/11/15 05:30:31;;;;;;;2.10;1.87;;;21.20;58.10;;;;;;5049429;28;20409;-70
2023/11/15 05:32:58;;;;;;;3.60;1.93;;;21.20;58.10;;;;;;5049978;28;20174;-71
2023/11/15 05:35:24;;;;;;;2.87;2.00;;;21.30;58.20;;;;;;5051352;28;20214;-70
2023/11/15 05:37:50;;;;;;;2.67;1.90;;;21.20;58.10;;;;;;5051714;28;20417;-69
2023/11/15 05:40:15;;;;;;;1.90;1.60;;;21.30;58.20;;;;;;5051507;28;20449;-69
2023/11/15 05:42:41;;;;;;;2.23;1.73;;;21.20;58.10;;;;;;5051650;28;20170;-69
2023/11/15 05:45:10;;;;;;;2.57;1.83;;;21.30;58.30;;;;;;5051186;28;20250;-68
2023/11/15 05:47:39;;;;;;;2.10;1.70;;;21.30;58.30;;;;;;5051083;28;20806;-70
2023/11/15 05:50:09;;;;;;;2.70;2.10;;;21.20;58.20;;;;;;5050938;28;20463;-69
2023/11/15 05:52:37;;;;;;;3.80;2.13;;;21.20;58.20;;;;;;5050966;28;20496;-69
2023/11/15 05:55:05;;;;;;;2.30;1.70;;;21.30;58.30;;;;;;5051210;28;20405;-69
2023/11/15 05:57:32;;;;;;;2.47;1.87;;;21.30;58.30;;;;;;5049717;28;20522;-69
2023/11/15 05:59:58;;;;;;;3.20;1.80;;;21.30;58.30;;;;;;5050812;28;20453;-69
2023/11/15 06:02:24;;;;;;;3.10;2.77;;;21.30;58.30;;;;;;5050829;28;20401;-70
2023/11/15 06:04:52;;;;;;;2.90;1.50;;;21.30;58.30;;;;;;5049821;28;20409;-69
2023/11/15 06:07:18;;;;;;;1.53;1.40;;;21.30;58.30;;;;;;5050350;28;20266;-69
2023/11/15 06:09:45;;;;;;;1.63;1.50;;;21.30;58.20;;;;;;5050948;28;20505;-70
2023/11/15 06:12:11;;;;;;;3.67;1.77;;;21.30;58.20;;;;;;5050741;28;20497;-68
2023/11/15 06:14:37;;;;;;;5.63;2.00;;;21.30;58.20;;;;;;5050711;28;21099;-68
2023/11/15 06:17:02;;;;;;;1.70;1.57;;;21.30;58.20;;;;;;5050597;28;20199;-71
2023/11/15 06:19:28;;;;;;;2.00;1.60;;;21.30;58.20;;;;;;5050600;28;20295;-69
2023/11/15 06:21:54;;;;;;;3.60;2.07;;;21.30;58.20;;;;;;5050952;28;20170;-69
2023/11/15 06:24:19;;;;;;;3.00;1.50;;;21.30;58.20;;;;;;5050873;28;20549;-69
2023/11/15 06:26:48;;;;;;;1.80;1.43;;;21.30;58.20;;;;;;5050919;28;20190;-68
2023/11/15 06:29:14;;;;;;;2.30;1.83;;;21.30;58.20;;;;;;5050993;28;20171;-69
2023/11/15 06:31:40;;;;;;;2.63;1.60;;;21.30;58.20;;;;;;5050903;28;20655;-69
2023/11/15 06:34:05;;;;;;;2.97;1.90;;;21.30;58.20;;;;;;5050703;28;20194;-69
2023/11/15 06:36:36;;;;;;;2.33;2.10;;;21.30;58.20;;;;;;5050684;28;20207;-70
2023/11/15 06:39:04;;;;;;;5.13;1.97;;;21.30;58.20;;;;;;5050783;28;20754;-69
2023/11/15 06:41:39;;;;;;;3.53;2.00;;;21.30;58.20;;;;;;5050664;28;20410;-69
2023/11/15 06:44:09;;;;;;;2.37;1.60;;;21.30;58.20;;;;;;5050662;28;20408;-69
2023/11/15 06:46:38;;;;;;;2.53;1.73;;;21.30;58.10;;;;;;5049200;28;20854;-69
2023/11/15 06:49:10;;;;;;;3.07;2.00;;;21.30;58.20;;;;;;5050733;28;20413;-69
2023/11/15 06:51:46;;;;;;;2.07;1.87;;;21.30;58.20;;;;;;5050623;28;20393;-69
2023/11/15 06:54:11;;;;;;;2.03;1.67;;;21.30;58.30;;;;;;5050802;28;20416;-71
2023/11/15 06:56:37;;;;;;;2.17;1.93;;;21.30;58.30;;;;;;5050778;28;20437;-69
2023/11/15 06:59:03;;;;;;;3.00;1.80;;;21.30;58.30;;;;;;5050534;28;20226;-69
2023/11/15 07:01:30;;;;;;;2.80;2.20;;;21.30;58.30;;;;;;5050342;28;20255;-69
2023/11/15 07:03:58;;;;;;;2.37;1.50;;;21.30;58.30;;;;;;5050381;28;20410;-68
2023/11/15 07:06:24;;;;;;;3.07;2.00;;;21.30;58.30;;;;;;5050356;28;20426;-70
2023/11/15 07:08:49;;;;;;;6.50;2.00;;;21.30;58.30;;;;;;5050743;28;20417;-70
2023/11/15 07:11:15;;;;;;;3.10;1.83;;;21.30;58.30;;;;;;5050498;28;20900;-69
2023/11/15 07:13:41;;;;;;;2.07;1.50;;;21.30;58.30;;;;;;5050765;28;20179;-69
2023/11/15 07:16:09;;;;;;;2.43;1.40;;;21.30;58.90;;;;;;5050620;28;20202;-67
2023/11/15 07:18:34;;;;;;;2.53;1.63;;;21.30;58.30;;;;;;5051776;28;20190;-70
2023/11/15 07:21:00;;;;;;;1.77;1.50;;;21.30;58.30;;;;;;5054279;28;20422;-68
2023/11/15 07:23:26;;;;;;;1.90;1.37;;;21.30;58.30;;;;;;5054348;28;20182;-69
2023/11/15 07:25:54;;;;;;;1.80;1.43;;;21.40;58.40;;;;;;5054253;28;20429;-69
2023/11/15 07:28:20;;;;;;;2.27;1.60;;;21.40;58.30;;;;;;5054238;28;20175;-69
2023/11/15 07:30:46;;;;;;;4.33;2.00;;;21.40;58.40;;;;;;5054129;28;20425;-69
2023/11/15 07:33:11;;;;;;;2.17;1.63;;;21.40;58.30;;;;;;5052626;28;20429;-70
2023/11/15 07:35:37;;;;;;;3.03;1.70;;;21.40;58.30;;;;;;5054224;28;20798;-70
2023/11/15 07:38:07;;;;;;;1.60;1.40;;;21.40;58.30;;;;;;5054134;28;20246;-70
2023/11/15 07:40:36;;;;;;;2.17;1.30;;;21.40;58.30;;;;;;5054284;28;20198;-69
2023/11/15 07:43:03;;;;;;;2.60;1.60;;;21.40;58.30;;;;;;5054305;28;20769;-69
2023/11/15 07:45:28;;;;;;;2.10;1.60;;;21.40;58.30;;;;;;5053600;28;20418;-69
2023/11/15 07:47:55;;;;;;;1.87;1.40;;;21.40;58.80;;;;;;5053680;28;20409;-69
2023/11/15 07:50:21;;;;;;;1.97;1.33;;;21.40;58.30;;;;;;5053885;28;20213;-68
2023/11/15 07:52:47;;;;;;;2.10;1.40;;;21.40;58.30;;;;;;5054161;28;20494;-67
2023/11/15 07:55:12;;;;;;;2.30;1.40;;;21.40;58.30;;;;;;5054291;28;20764;-68
2023/11/15 07:57:38;;;;;;;2.30;1.80;;;21.40;58.30;;;;;;5052032;28;20202;-68
2023/11/15 08:00:08;;;;;;;2.10;1.40;;;21.40;58.30;;;;;;5053794;28;20206;-70
2023/11/15 08:02:37;;;;;;;2.87;1.50;;;21.40;58.30;;;;;;5054002;28;20239;-69
2023/11/15 08:05:07;;;;;;;2.20;1.77;;;21.40;58.30;;;;;;5053466;28;20786;-69
2023/11/15 08:07:34;;;;;;;1.90;1.40;;;21.40;58.30;;;;;;5053282;28;20444;-69
2023/11/15 08:10:00;;;;;;;2.33;1.57;;;21.40;58.30;;;;;;5053935;28;20790;-70
2023/11/15 08:12:27;;;;;;;1.87;1.40;;;21.40;58.30;;;;;;5053779;28;20425;-68
2023/11/15 08:14:52;;;;;;;1.50;1.33;;;21.40;58.20;;;;;;5053295;28;20848;-70
2023/11/15 08:17:18;;;;;;;2.10;1.70;;;21.50;58.30;;;;;;5051536;28;20433;-70
2023/11/15 08:19:44;;;;;;;2.53;1.40;;;21.40;58.30;;;;;;5053479;28;20646;-69
2023/11/15 08:22:10;;;;;;;1.73;1.30;;;21.40;58.30;;;;;;5053260;28;20257;-69
2023/11/15 08:24:36;;;;;;;1.70;1.40;;;21.40;58.20;;;;;;5053082;28;20731;-69
2023/11/15 08:27:03;;;;;;;1.97;1.57;;;21.40;58.20;;;;;;5053132;28;21047;-69
2023/11/15 08:29:29;;;;;;;1.93;1.53;;;21.50;58.30;;;;;;5052841;28;20193;-69
2023/11/15 08:31:54;;;;;;;3.30;1.80;;;21.40;58.20;;;;;;5053556;28;20406;-68
2023/11/15 08:34:20;;;;;;;1.90;1.53;;;21.50;58.30;;;;;;5053253;28;20179;-69
2023/11/15 08:36:46;;;;;;;2.13;1.57;;;21.50;58.30;;;;;;5053101;28;20270;-69
2023/11/15 08:39:12;;;;;;;2.03;1.40;;;21.50;58.30;;;;;;5053084;28;20222;-70
2023/11/15 08:41:41;;;;;;;2.50;1.50;;;21.50;58.30;;;;;;5053095;28;20409;-69
2023/11/15 08:44:08;;;;;;;2.70;1.57;;;21.50;58.30;;;;;;5053053;28;20409;-68
2023/11/15 08:46:34;;;;;;;1.70;1.30;;;21.50;58.30;;;;;;5053042;28;20418;-68
2023/11/15 08:49:01;;;;;;;1.33;1.10;;;21.50;58.30;;;;;;5053155;28;20409;-69
2023/11/15 08:51:29;;;;;;;2.93;1.77;;;21.50;58.80;;;;;;5052714;28;20413;-68
2023/11/15 08:53:54;;;;;;;1.73;1.33;;;21.50;58.30;;;;;;5052681;28;20418;-70
2023/11/15 08:56:20;;;;;;;1.57;1.43;;;21.50;58.30;;;;;;5053029;28;20442;-69
2023/11/15 08:58:46;;;;;;;1.40;1.20;;;21.50;58.30;;;;;;5052899;28;20175;-68
2023/11/15 09:01:11;;;;;;;2.57;1.60;;;21.50;58.30;;;;;;5052809;28;20182;-69
2023/11/15 09:03:41;;;;;;;1.67;1.40;;;21.50;58.30;;;;;;5052594;28;20179;-69
2023/11/15 09:06:08;;;;;;;3.30;1.40;;;21.50;58.30;;;;;;5052085;28;20209;-69
2023/11/15 09:08:34;;;;;;;1.83;1.37;;;21.50;58.30;;;;;;5052437;28;20433;-68
2023/11/15 09:10:59;;;;;;;1.80;1.30;;;21.50;58.30;;;;;;5051215;28;20413;-68
2023/11/15 09:13:26;;;;;;;2.30;1.70;;;21.50;58.30;;;;;;5052617;28;20185;-68
2023/11/15 09:15:52;;;;;;;2.10;1.40;;;21.50;58.30;;;;;;5052545;28;20191;-70
2023/11/15 09:18:23;;;;;;;1.50;1.30;;;21.50;58.30;;;;;;5052371;28;20533;-69
2023/11/15 09:20:49;;;;;;;3.30;1.60;;;21.50;58.30;;;;;;5052159;28;20448;-69
2023/11/15 09:23:16;;;;;;;2.50;1.23;;;21.50;58.30;;;;;;5052239;28;20398;-70
2023/11/15 09:25:42;;;;;;;1.50;1.10;;;21.50;58.30;;;;;;5051994;28;20421;-69
2023/11/15 09:28:10;;;;;;;1.60;1.30;;;21.50;58.30;;;;;;5051821;28;20423;-69
2023/11/15 09:30:36;;;;;;;2.03;1.30;;;21.50;58.30;;;;;;5051730;28;20474;-69
2023/11/15 09:33:05;;;;;;;2.30;1.30;;;21.50;58.30;;;;;;5051925;28;21251;-69
2023/11/15 09:35:33;;;;;;;1.77;1.27;;;21.50;58.30;;;;;;5051784;28;20496;-69
2023/11/15 09:37:59;;;;;;;1.90;1.30;;;21.50;58.30;;;;;;5052067;28;20437;-68
2023/11/15 09:40:28;;;;;;;1.53;1.30;;;21.50;58.30;;;;;;5049448;28;20484;-68
2023/11/15 09:42:56;;;;;;;1.67;1.27;;;21.50;58.30;;;;;;5052133;28;20644;-70
2023/11/15 09:45:23;;;;;;;2.50;1.87;;;21.50;58.30;;;;;;5051667;28;20414;-69
2023/11/15 09:47:53;;;;;;;1.70;1.33;;;21.50;58.30;;;;;;5051930;28;20413;-69
2023/11/15 09:50:24;;;;;;;1.40;1.20;;;21.50;58.30;;;;;;5051570;28;20834;-70
2023/11/15 09:52:51;;;;;;;1.43;1.30;;;21.50;58.30;;;;;;5051751;28;20402;-68
2023/11/15 09:55:29;;;;;;;1.60;1.30;;;21.50;58.30;;;;;;5051538;28;20424;-70
2023/11/15 09:57:55;;;;;;;1.60;1.37;;;21.50;58.30;;;;;;5051732;28;20398;-69
2023/11/15 10:00:22;;;;;;;1.40;1.10;;;21.50;58.30;;;;;;5051362;28;20507;-70
2023/11/15 10:02:50;;;;;;;1.60;1.37;;;21.50;58.30;;;;;;5051276;28;20406;-69
2023/11/15 10:05:21;;;;;;;1.80;1.57;;;21.50;58.30;;;;;;5051645;28;20934;-69
2023/11/15 10:08:11;;;;;;;2.10;1.13;;;21.50;58.30;;;;;;5051489;28;20416;-69
2023/11/15 10:10:38;;;;;;;1.43;1.17;;;21.50;58.30;;;;;;5050214;28;20421;-70
2023/11/15 10:13:16;;;;;;;1.50;1.17;;;21.50;58.30;;;;;;5051366;28;20429;-69
2023/11/15 10:15:46;;;;;;;2.03;1.37;;;21.50;58.30;;;;;;5051143;28;20853;-70
2023/11/15 10:18:18;;;;;;;1.60;1.20;;;21.50;58.30;;;;;;5050998;28;20524;-69
2023/11/15 10:20:44;;;;;;;1.83;1.23;;;21.50;58.30;;;;;;5051182;28;20540;-69
2023/11/15 10:23:11;;;;;;;1.90;1.30;;;21.50;58.30;;;;;;5051644;28;20492;-68
2023/11/15 10:25:47;;;;;;;1.43;1.20;;;21.50;58.30;;;;;;5051252;28;20209;-69
2023/11/15 10:28:15;;;;;;;1.60;1.10;;;21.50;58.30;;;;;;5051589;28;20460;-69
2023/11/15 10:30:41;;;;;;;2.20;1.37;;;21.50;58.30;;;;;;5051387;28;20401;-69
2023/11/15 10:33:10;;;;;;;1.60;1.30;;;21.50;58.40;;;;;;5050873;28;20500;-69
2023/11/15 10:35:39;;;;;;;1.30;1.17;;;21.50;58.30;;;;;;5051127;28;20413;-69
2023/11/15 10:38:14;;;;;;;1.20;0.93;;;21.50;58.30;;;;;;5051113;28;20500;-69
2023/11/15 10:40:46;;;;;;;1.90;1.27;;;21.50;58.30;;;;;;5051209;28;20847;-68
2023/11/15 10:43:15;;;;;;;1.97;1.43;;;21.50;58.30;;;;;;5051460;28;20386;-69
2023/11/15 10:45:43;;;;;;;1.37;1.20;;;21.50;58.30;;;;;;5050980;28;20534;-68
2023/11/15 10:48:12;;;;;;;1.60;1.10;;;21.50;58.30;;;;;;5051119;28;20416;-69
2023/11/15 10:50:44;;;;;;;1.93;1.40;;;21.50;58.30;;;;;;5051165;28;20916;-69
2023/11/15 10:53:10;;;;;;;2.67;1.33;;;21.50;58.30;;;;;;5054746;28;20394;-69
2023/11/15 10:55:40;;;;;;;1.60;1.30;;;21.50;58.30;;;;;;5053660;28;20475;-68
2023/11/15 10:58:12;;;;;;;2.53;1.30;;;21.50;58.30;;;;;;5055346;28;20777;-69
2023/11/15 11:00:41;;;;;;;1.83;1.50;;;21.50;58.40;;;;;;5053741;28;20452;-70
2023/11/15 11:03:08;;;;;;;1.70;1.47;;;21.50;58.30;;;;;;5054758;28;20401;-70
2023/11/15 11:06:13;;;;;;;2.03;1.57;;;21.50;58.90;;;;;;5054764;28;20407;-70
2023/11/15 11:09:09;;;;;;;1.93;1.30;;;21.60;58.40;;;;;;5055211;28;20393;-69
2023/11/15 11:12:06;;;;;;;1.53;1.13;;;21.50;58.40;;;;;;5054748;28;20394;-68
2023/11/15 11:14:32;;;;;;;1.70;1.30;;;21.50;58.40;;;;;;5054516;28;20489;-68
2023/11/15 11:16:58;;;;;;;1.30;1.17;;;21.50;58.40;;;;;;5054660;28;20801;-69
2023/11/15 11:19:26;;;;;;;1.77;1.07;;;21.50;58.40;;;;;;5054335;28;20561;-69
2023/11/15 11:22:05;;;;;;;1.60;1.27;;;21.50;58.40;;;;;;5054339;28;20411;-69
2023/11/15 11:24:48;;;;;;;1.53;1.27;;;21.50;58.40;;;;;;5054685;28;20397;-68
2023/11/15 11:27:14;;;;;;;2.30;1.40;;;21.50;58.40;;;;;;5054553;28;20817;-67
2023/11/15 11:30:07;;;;;;;1.30;1.00;;;21.50;58.40;;;;;;5054581;28;20410;-66
2023/11/15 11:32:35;;;;;;;2.03;1.03;;;21.50;58.40;;;;;;5051956;28;20179;-70
2023/11/15 11:35:01;;;;;;;1.30;1.20;;;21.50;58.40;;;;;;5054228;28;20954;-68
2023/11/15 11:37:55;;;;;;;1.47;1.37;;;21.50;58.40;;;;;;5052895;28;20437;-70
2023/11/15 11:40:26;;;;;;;2.10;1.10;;;21.50;58.40;;;;;;5054427;28;20187;-70
2023/11/15 11:42:52;;;;;;;1.43;1.00;;;21.50;59.00;;;;;;5054114;28;20896;-70
2023/11/15 11:45:19;;;;;;;1.53;1.10;;;21.50;58.40;;;;;;5053902;28;20409;-70
2023/11/15 11:47:47;;;;;;;1.90;1.27;;;21.50;58.40;;;;;;5053908;28;20931;-69
2023/11/15 11:50:25;;;;;;;1.43;1.23;;;21.50;58.40;;;;;;5054093;28;20416;-70
2023/11/15 11:52:57;;;;;;;1.77;1.27;;;21.50;58.40;;;;;;5053926;28;20478;-69
2023/11/15 11:55:24;;;;;;;1.53;1.20;;;21.50;58.40;;;;;;5052541;28;20479;-69
2023/11/15 11:57:50;;;;;;;1.60;1.30;;;21.50;59.00;;;;;;5054105;28;20431;-68
2023/11/15 12:00:18;;;;;;;1.40;0.93;;;21.50;58.40;;;;;;5053851;28;20453;-69
2023/11/15 12:02:49;;;;;;;1.57;1.20;;;21.50;58.40;;;;;;5053444;28;20437;-69
2023/11/15 12:05:20;;;;;;;1.57;1.30;;;21.50;58.40;;;;;;5053804;28;20413;-69
2023/11/15 12:07:56;;;;;;;1.73;1.10;;;21.50;58.40;;;;;;5054001;28;20452;-70
2023/11/15 12:10:24;;;;;;;1.83;1.60;;;21.50;58.40;;;;;;5053479;28;20409;-70
2023/11/15 12:13:05;;;;;;;2.13;1.70;;;21.50;58.40;;;;;;5053597;28;20413;-68
2023/11/15 12:15:35;;;;;;;2.27;2.07;;;21.50;58.40;;;;;;5053267;28;20421;-69
2023/11/15 12:18:02;;;;;;;1.93;1.57;;;21.50;59.00;;;;;;5053217;28;20437;-69
2023/11/15 12:20:33;;;;;;;2.47;1.67;;;21.50;58.40;;;;;;5053628;28;20963;-69
2023/11/15 12:23:08;;;;;;;2.50;1.80;;;21.50;58.40;;;;;;5053532;28;20402;-69
2023/11/15 12:25:48;;;;;;;3.67;1.90;;;21.50;58.40;;;;;;5053213;28;20393;-70
2023/11/15 12:28:25;;;;;;;5.97;1.80;;;21.50;58.40;;;;;;5052812;28;20443;-68
2023/11/15 12:30:52;;;;;;;2.27;1.70;;;21.50;58.40;;;;;;5053533;28;20447;-69
2023/11/15 12:33:18;;;;;;;4.43;2.53;;;21.50;58.40;;;;;;5053175;28;20816;-69
2023/11/15 12:35:45;;;;;;;2.57;1.80;;;21.50;58.40;;;;;;5052922;28;20528;-69
2023/11/15 12:38:13;;;;;;;4.70;1.93;;;21.50;58.40;;;;;;5053487;28;20492;-70
2023/11/15 12:40:44;;;;;;;5.00;2.30;;;21.50;58.40;;;;;;5053081;28;20832;-69
2023/11/15 12:43:19;;;;;;;4.80;1.77;;;21.50;58.40;;;;;;5052672;28;20444;-70
2023/11/15 12:45:45;;;;;;;3.60;2.10;;;21.50;58.40;;;;;;5053055;28;20456;-69
2023/11/15 12:48:11;;;;;;;3.30;2.00;;;21.50;58.40;;;;;;5052905;28;20433;-70
2023/11/15 12:50:42;;;;;;;2.63;2.00;;;21.50;58.40;;;;;;5052959;28;20904;-69